sensor_id;sensor_type;location;lat;lon;timestamp;P1;durP1;ratioP1;P2;durP2;ratioP2
7255;SDS011;3669;49.200;9.242;2024-03-29T00:00:41;2.83;;;2.60;;
7255;SDS011;3669;49.200;9.242;2024-03-29T00:03:10;3.08;;;2.33;;
7255;SDS011;3669;49.200;9.242;2024-03-29T00:05:37;2.72;;;2.63;;
7255;SDS011;3669;49.200;9.242;2024-03-29T00:08:04;2.47;;;2.38;;
7255;SDS011;3669;49.200;9.242;2024-03-29T00:10:32;2.33;;;2.20;;
7255;SDS011;3669;49.200;9.242;2024-03-29T00:13:00;2.75;;;2.55;;
7255;SDS011;3669;49.200;9.242;2024-03-29T00:15:27;2.90;;;2.70;;
7255;SDS011;3669;49.200;9.242;2024-03-29T00:17:54;2.47;;;2.28;;
7255;SDS011;3669;49.200;9.242;2024-03-29T00:20:21;2.38;;;2.17;;
7255;SDS011;3669;49.200;9.242;2024-03-29T00:22:49;3.08;;;2.38;;
7255;SDS011;3669;49.200;9.242;2024-03-29T00:25:17;2.40;;;2.20;;
7255;SDS011;3669;49.200;9.242;2024-03-29T00:27:44;2.72;;;2.58;;
7255;SDS011;3669;49.200;9.242;2024-03-29T00:30:11;2.80;;;2.60;;
7255;SDS011;3669;49.200;9.242;2024-03-29T00:32:38;2.45;;;2.28;;
7255;SDS011;3669;49.200;9.242;2024-03-29T00:35:05;3.03;;;2.80;;
7255;SDS011;3669;49.200;9.242;2024-03-29T00:37:33;2.70;;;2.50;;
7255;SDS011;3669;49.200;9.242;2024-03-29T00:40:01;2.80;;;2.60;;
7255;SDS011;3669;49.200;9.242;2024-03-29T00:42:28;4.40;;;2.88;;
7255;SDS011;3669;49.200;9.242;2024-03-29T00:44:56;3.25;;;2.85;;
7255;SDS011;3669;49.200;9.242;2024-03-29T00:47:23;2.60;;;2.40;;
7255;SDS011;3669;49.200;9.242;2024-03-29T00:49:50;2.72;;;2.53;;
7255;SDS011;3669;49.200;9.242;2024-03-29T00:52:18;3.53;;;3.10;;
7255;SDS011;3669;49.200;9.242;2024-03-29T00:54:45;3.42;;;3.13;;
7255;SDS011;3669;49.200;9.242;2024-03-29T00:57:12;3.22;;;2.83;;
7255;SDS011;3669;49.200;9.242;2024-03-29T00:59:52;3.05;;;2.72;;
7255;SDS011;3669;49.200;9.242;2024-03-29T01:02:19;3.00;;;2.80;;
7255;SDS011;3669;49.200;9.242;2024-03-29T01:04:46;3.35;;;3.05;;
7255;SDS011;3669;49.200;9.242;2024-03-29T01:07:14;3.38;;;3.13;;
7255;SDS011;3669;49.200;9.242;2024-03-29T01:09:42;2.72;;;2.53;;
7255;SDS011;3669;49.200;9.242;2024-03-29T01:12:09;3.72;;;3.13;;
7255;SDS011;3669;49.200;9.242;2024-03-29T01:14:37;3.38;;;3.05;;
7255;SDS011;3669;49.200;9.242;2024-03-29T01:17:04;3.20;;;3.00;;
7255;SDS011;3669;49.200;9.242;2024-03-29T01:19:32;3.10;;;2.85;;
7255;SDS011;3669;49.200;9.242;2024-03-29T01:21:59;3.10;;;2.90;;
7255;SDS011;3669;49.200;9.242;2024-03-29T01:24:26;3.45;;;3.20;;
7255;SDS011;3669;49.200;9.242;2024-03-29T01:26:54;3.38;;;3.08;;
7255;SDS011;3669;49.200;9.242;2024-03-29T01:29:21;3.00;;;2.80;;
7255;SDS011;3669;49.200;9.242;2024-03-29T01:31:48;3.85;;;3.13;;
7255;SDS011;3669;49.200;9.242;2024-03-29T01:34:15;3.38;;;3.08;;
7255;SDS011;3669;49.200;9.242;2024-03-29T01:36:43;3.25;;;3.03;;
7255;SDS011;3669;49.200;9.242;2024-03-29T01:39:10;3.30;;;3.10;;
7255;SDS011;3669;49.200;9.242;2024-03-29T01:41:40;3.53;;;3.33;;
7255;SDS011;3669;49.200;9.242;2024-03-29T01:44:07;3.72;;;3.13;;
7255;SDS011;3669;49.200;9.242;2024-03-29T01:46:35;4.05;;;3.00;;
7255;SDS011;3669;49.200;9.242;2024-03-29T01:49:03;3.03;;;2.83;;
7255;SDS011;3669;49.200;9.242;2024-03-29T01:51:32;3.45;;;2.88;;
7255;SDS011;3669;49.200;9.242;2024-03-29T01:53:59;3.30;;;3.00;;
7255;SDS011;3669;49.200;9.242;2024-03-29T01:56:27;3.22;;;2.92;;
7255;SDS011;3669;49.200;9.242;2024-03-29T01:58:54;3.00;;;2.80;;
7255;SDS011;3669;49.200;9.242;2024-03-29T02:01:21;3.22;;;2.97;;
7255;SDS011;3669;49.200;9.242;2024-03-29T02:03:49;2.97;;;2.75;;
7255;SDS011;3669;49.200;9.242;2024-03-29T02:06:18;3.28;;;2.97;;
7255;SDS011;3669;49.200;9.242;2024-03-29T02:08:45;5.70;;;5.30;;
7255;SDS011;3669;49.200;9.242;2024-03-29T02:11:13;13.45;;;12.63;;
7255;SDS011;3669;49.200;9.242;2024-03-29T02:13:40;23.40;;;22.20;;
7255;SDS011;3669;49.200;9.242;2024-03-29T02:16:07;31.45;;;29.80;;
7255;SDS011;3669;49.200;9.242;2024-03-29T02:18:34;27.90;;;26.52;;
7255;SDS011;3669;49.200;9.242;2024-03-29T02:21:01;23.35;;;22.20;;
7255;SDS011;3669;49.200;9.242;2024-03-29T02:23:29;17.75;;;16.67;;
7255;SDS011;3669;49.200;9.242;2024-03-29T02:25:56;4.38;;;3.97;;
7255;SDS011;3669;49.200;9.242;2024-03-29T02:28:24;3.30;;;3.00;;
7255;SDS011;3669;49.200;9.242;2024-03-29T02:30:51;3.60;;;3.33;;
7255;SDS011;3669;49.200;9.242;2024-03-29T02:33:20;3.83;;;3.60;;
7255;SDS011;3669;49.200;9.242;2024-03-29T02:35:47;3.67;;;3.38;;
7255;SDS011;3669;49.200;9.242;2024-03-29T02:38:14;3.70;;;3.40;;
7255;SDS011;3669;49.200;9.242;2024-03-29T02:40:41;3.22;;;3.00;;
7255;SDS011;3669;49.200;9.242;2024-03-29T02:43:10;3.65;;;3.35;;
7255;SDS011;3669;49.200;9.242;2024-03-29T02:45:37;3.80;;;3.50;;
7255;SDS011;3669;49.200;9.242;2024-03-29T02:48:05;3.30;;;3.00;;
7255;SDS011;3669;49.200;9.242;2024-03-29T02:50:32;4.07;;;3.42;;
7255;SDS011;3669;49.200;9.242;2024-03-29T02:52:59;3.65;;;3.35;;
7255;SDS011;3669;49.200;9.242;2024-03-29T02:55:27;3.67;;;3.38;;
7255;SDS011;3669;49.200;9.242;2024-03-29T02:57:54;3.90;;;3.17;;
7255;SDS011;3669;49.200;9.242;2024-03-29T03:00:21;3.55;;;3.25;;
7255;SDS011;3669;49.200;9.242;2024-03-29T03:02:48;3.25;;;3.00;;
7255;SDS011;3669;49.200;9.242;2024-03-29T03:05:15;3.72;;;3.42;;
7255;SDS011;3669;49.200;9.242;2024-03-29T03:07:42;5.35;;;3.47;;
7255;SDS011;3669;49.200;9.242;2024-03-29T03:10:28;3.20;;;2.90;;
7255;SDS011;3669;49.200;9.242;2024-03-29T03:13:13;3.38;;;3.17;;
7255;SDS011;3669;49.200;9.242;2024-03-29T03:15:41;3.85;;;3.50;;
7255;SDS011;3669;49.200;9.242;2024-03-29T03:18:08;3.78;;;3.47;;
7255;SDS011;3669;49.200;9.242;2024-03-29T03:20:35;3.38;;;3.08;;
7255;SDS011;3669;49.200;9.242;2024-03-29T03:23:03;3.75;;;3.45;;
7255;SDS011;3669;49.200;9.242;2024-03-29T03:25:31;3.17;;;2.85;;
7255;SDS011;3669;49.200;9.242;2024-03-29T03:27:58;3.50;;;3.20;;
7255;SDS011;3669;49.200;9.242;2024-03-29T03:30:25;3.22;;;3.03;;
7255;SDS011;3669;49.200;9.242;2024-03-29T03:32:52;4.32;;;3.40;;
7255;SDS011;3669;49.200;9.242;2024-03-29T03:35:19;3.50;;;3.20;;
7255;SDS011;3669;49.200;9.242;2024-03-29T03:37:46;3.40;;;3.13;;
7255;SDS011;3669;49.200;9.242;2024-03-29T03:40:14;2.90;;;2.70;;
7255;SDS011;3669;49.200;9.242;2024-03-29T03:42:41;3.20;;;3.00;;
7255;SDS011;3669;49.200;9.242;2024-03-29T03:45:08;3.40;;;3.10;;
7255;SDS011;3669;49.200;9.242;2024-03-29T03:47:36;3.40;;;3.10;;
7255;SDS011;3669;49.200;9.242;2024-03-29T03:50:03;3.50;;;3.20;;
7255;SDS011;3669;49.200;9.242;2024-03-29T03:52:31;3.45;;;3.25;;
7255;SDS011;3669;49.200;9.242;2024-03-29T03:54:58;3.80;;;3.42;;
7255;SDS011;3669;49.200;9.242;2024-03-29T03:57:25;3.55;;;3.25;;
7255;SDS011;3669;49.200;9.242;2024-03-29T03:59:52;3.13;;;2.92;;
7255;SDS011;3669;49.200;9.242;2024-03-29T04:02:19;3.58;;;2.63;;
7255;SDS011;3669;49.200;9.242;2024-03-29T04:04:50;3.08;;;2.88;;
7255;SDS011;3669;49.200;9.242;2024-03-29T04:07:18;2.92;;;2.65;;
7255;SDS011;3669;49.200;9.242;2024-03-29T04:09:45;2.85;;;2.65;;
7255;SDS011;3669;49.200;9.242;2024-03-29T04:12:12;2.83;;;2.63;;
7255;SDS011;3669;49.200;9.242;2024-03-29T04:14:40;2.67;;;2.40;;
7255;SDS011;3669;49.200;9.242;2024-03-29T04:17:07;2.35;;;2.15;;
7255;SDS011;3669;49.200;9.242;2024-03-29T04:19:35;3.25;;;2.22;;
7255;SDS011;3669;49.200;9.242;2024-03-29T04:22:02;2.80;;;2.70;;
7255;SDS011;3669;49.200;9.242;2024-03-29T04:24:29;2.33;;;2.22;;
7255;SDS011;3669;49.200;9.242;2024-03-29T04:26:56;2.40;;;2.30;;
7255;SDS011;3669;49.200;9.242;2024-03-29T04:29:23;2.28;;;2.17;;
7255;SDS011;3669;49.200;9.242;2024-03-29T04:31:51;2.42;;;2.20;;
7255;SDS011;3669;49.200;9.242;2024-03-29T04:34:18;2.38;;;2.28;;
7255;SDS011;3669;49.200;9.242;2024-03-29T04:36:45;2.33;;;2.22;;
7255;SDS011;3669;49.200;9.242;2024-03-29T04:39:12;2.17;;;2.05;;
7255;SDS011;3669;49.200;9.242;2024-03-29T04:41:39;1.90;;;1.80;;
7255;SDS011;3669;49.200;9.242;2024-03-29T04:44:06;2.10;;;2.00;;
7255;SDS011;3669;49.200;9.242;2024-03-29T04:46:34;19.42;;;18.58;;
7255;SDS011;3669;49.200;9.242;2024-03-29T04:49:01;31.30;;;29.65;;
7255;SDS011;3669;49.200;9.242;2024-03-29T04:51:28;28.40;;;27.00;;
7255;SDS011;3669;49.200;9.242;2024-03-29T04:53:56;31.48;;;30.02;;
7255;SDS011;3669;49.200;9.242;2024-03-29T04:56:23;18.83;;;17.90;;
7255;SDS011;3669;49.200;9.242;2024-03-29T04:58:50;6.00;;;5.72;;
7255;SDS011;3669;49.200;9.242;2024-03-29T05:01:18;2.15;;;2.05;;
7255;SDS011;3669;49.200;9.242;2024-03-29T05:03:45;2.30;;;2.10;;
7255;SDS011;3669;49.200;9.242;2024-03-29T05:06:12;2.03;;;1.92;;
7255;SDS011;3669;49.200;9.242;2024-03-29T05:08:39;2.13;;;2.03;;
7255;SDS011;3669;49.200;9.242;2024-03-29T05:11:06;2.50;;;2.30;;
7255;SDS011;3669;49.200;9.242;2024-03-29T05:13:33;2.10;;;2.00;;
7255;SDS011;3669;49.200;9.242;2024-03-29T05:16:01;2.25;;;2.15;;
7255;SDS011;3669;49.200;9.242;2024-03-29T05:18:28;2.20;;;2.10;;
7255;SDS011;3669;49.200;9.242;2024-03-29T05:20:55;2.00;;;1.90;;
7255;SDS011;3669;49.200;9.242;2024-03-29T05:23:23;2.33;;;2.22;;
7255;SDS011;3669;49.200;9.242;2024-03-29T05:25:50;2.00;;;1.90;;
7255;SDS011;3669;49.200;9.242;2024-03-29T05:28:18;2.03;;;1.92;;
7255;SDS011;3669;49.200;9.242;2024-03-29T05:30:45;2.45;;;2.35;;
7255;SDS011;3669;49.200;9.242;2024-03-29T05:33:12;2.08;;;1.98;;
7255;SDS011;3669;49.200;9.242;2024-03-29T05:35:41;2.10;;;2.00;;
7255;SDS011;3669;49.200;9.242;2024-03-29T05:38:08;2.83;;;2.63;;
7255;SDS011;3669;49.200;9.242;2024-03-29T05:40:35;2.38;;;2.28;;
7255;SDS011;3669;49.200;9.242;2024-03-29T05:43:05;13.15;;;12.50;;
7255;SDS011;3669;49.200;9.242;2024-03-29T05:45:32;2.20;;;2.10;;
7255;SDS011;3669;49.200;9.242;2024-03-29T05:47:59;2.50;;;2.40;;
7255;SDS011;3669;49.200;9.242;2024-03-29T05:50:26;2.28;;;2.17;;
7255;SDS011;3669;49.200;9.242;2024-03-29T05:52:54;2.55;;;2.35;;
7255;SDS011;3669;49.200;9.242;2024-03-29T05:55:22;2.63;;;2.42;;
7255;SDS011;3669;49.200;9.242;2024-03-29T05:57:49;2.65;;;2.45;;
7255;SDS011;3669;49.200;9.242;2024-03-29T06:00:16;3.22;;;3.03;;
7255;SDS011;3669;49.200;9.242;2024-03-29T06:02:43;2.80;;;2.60;;
7255;SDS011;3669;49.200;9.242;2024-03-29T06:05:11;3.10;;;2.47;;
7255;SDS011;3669;49.200;9.242;2024-03-29T06:07:38;2.80;;;2.60;;
7255;SDS011;3669;49.200;9.242;2024-03-29T06:10:05;2.90;;;2.70;;
7255;SDS011;3669;49.200;9.242;2024-03-29T06:12:34;2.78;;;2.58;;
7255;SDS011;3669;49.200;9.242;2024-03-29T06:15:05;20.20;;;19.10;;
7255;SDS011;3669;49.200;9.242;2024-03-29T06:17:51;3.00;;;2.80;;
7255;SDS011;3669;49.200;9.242;2024-03-29T06:20:18;18.40;;;17.42;;
7255;SDS011;3669;49.200;9.242;2024-03-29T06:22:45;23.60;;;22.52;;
7255;SDS011;3669;49.200;9.242;2024-03-29T06:25:12;29.77;;;28.25;;
7255;SDS011;3669;49.200;9.242;2024-03-29T06:27:39;19.00;;;18.00;;
7255;SDS011;3669;49.200;9.242;2024-03-29T06:30:06;3.60;;;3.30;;
7255;SDS011;3669;49.200;9.242;2024-03-29T06:32:34;3.17;;;2.80;;
7255;SDS011;3669;49.200;9.242;2024-03-29T06:35:03;3.10;;;2.90;;
7255;SDS011;3669;49.200;9.242;2024-03-29T06:37:30;3.40;;;3.20;;
7255;SDS011;3669;49.200;9.242;2024-03-29T06:39:57;3.13;;;2.92;;
7255;SDS011;3669;49.200;9.242;2024-03-29T06:42:25;3.03;;;2.83;;
7255;SDS011;3669;49.200;9.242;2024-03-29T06:44:52;2.97;;;2.78;;
7255;SDS011;3669;49.200;9.242;2024-03-29T06:47:20;3.10;;;2.90;;
7255;SDS011;3669;49.200;9.242;2024-03-29T06:49:48;3.00;;;2.80;;
7255;SDS011;3669;49.200;9.242;2024-03-29T06:52:15;3.50;;;3.13;;
7255;SDS011;3669;49.200;9.242;2024-03-29T06:54:42;3.25;;;3.05;;
7255;SDS011;3669;49.200;9.242;2024-03-29T06:57:10;3.10;;;2.90;;
7255;SDS011;3669;49.200;9.242;2024-03-29T06:59:41;3.42;;;3.22;;
7255;SDS011;3669;49.200;9.242;2024-03-29T07:02:09;3.08;;;2.72;;
7255;SDS011;3669;49.200;9.242;2024-03-29T07:04:37;3.55;;;3.30;;
7255;SDS011;3669;49.200;9.242;2024-03-29T07:07:04;3.10;;;2.90;;
7255;SDS011;3669;49.200;9.242;2024-03-29T07:09:31;3.40;;;3.20;;
7255;SDS011;3669;49.200;9.242;2024-03-29T07:11:58;2.95;;;2.75;;
7255;SDS011;3669;49.200;9.242;2024-03-29T07:14:25;3.08;;;2.88;;
7255;SDS011;3669;49.200;9.242;2024-03-29T07:16:54;3.30;;;3.00;;
7255;SDS011;3669;49.200;9.242;2024-03-29T07:19:22;3.05;;;2.85;;
7255;SDS011;3669;49.200;9.242;2024-03-29T07:21:49;4.18;;;3.88;;
7255;SDS011;3669;49.200;9.242;2024-03-29T07:24:19;3.80;;;3.50;;
7255;SDS011;3669;49.200;9.242;2024-03-29T07:26:46;4.22;;;3.92;;
7255;SDS011;3669;49.200;9.242;2024-03-29T07:29:14;4.55;;;3.83;;
7255;SDS011;3669;49.200;9.242;2024-03-29T07:31:41;3.97;;;3.67;;
7255;SDS011;3669;49.200;9.242;2024-03-29T07:34:08;4.20;;;3.90;;
7255;SDS011;3669;49.200;9.242;2024-03-29T07:36:36;3.53;;;3.30;;
7255;SDS011;3669;49.200;9.242;2024-03-29T07:39:05;3.50;;;3.30;;
7255;SDS011;3669;49.200;9.242;2024-03-29T07:41:32;3.47;;;3.15;;
7255;SDS011;3669;49.200;9.242;2024-03-29T07:43:59;3.55;;;3.35;;
7255;SDS011;3669;49.200;9.242;2024-03-29T07:46:34;3.63;;;3.33;;
7255;SDS011;3669;49.200;9.242;2024-03-29T07:49:02;3.42;;;3.22;;
7255;SDS011;3669;49.200;9.242;2024-03-29T07:51:30;3.60;;;3.30;;
7255;SDS011;3669;49.200;9.242;2024-03-29T07:53:57;3.30;;;3.10;;
7255;SDS011;3669;49.200;9.242;2024-03-29T07:56:24;4.32;;;3.95;;
7255;SDS011;3669;49.200;9.242;2024-03-29T07:58:52;3.70;;;3.40;;
7255;SDS011;3669;49.200;9.242;2024-03-29T08:01:22;3.97;;;3.78;;
7255;SDS011;3669;49.200;9.242;2024-03-29T08:03:53;5.63;;;5.32;;
7255;SDS011;3669;49.200;9.242;2024-03-29T08:06:20;21.02;;;19.77;;
7255;SDS011;3669;49.200;9.242;2024-03-29T08:08:51;18.83;;;17.83;;
7255;SDS011;3669;49.200;9.242;2024-03-29T08:11:18;29.50;;;27.65;;
7255;SDS011;3669;49.200;9.242;2024-03-29T08:13:45;28.20;;;26.65;;
7255;SDS011;3669;49.200;9.242;2024-03-29T08:16:12;22.75;;;21.60;;
7255;SDS011;3669;49.200;9.242;2024-03-29T08:18:42;30.77;;;29.25;;
7255;SDS011;3669;49.200;9.242;2024-03-29T08:21:09;12.77;;;12.07;;
7255;SDS011;3669;49.200;9.242;2024-03-29T08:23:40;3.70;;;3.40;;
7255;SDS011;3669;49.200;9.242;2024-03-29T08:26:11;4.13;;;3.83;;
7255;SDS011;3669;49.200;9.242;2024-03-29T08:28:39;4.47;;;4.18;;
7255;SDS011;3669;49.200;9.242;2024-03-29T08:31:06;3.63;;;3.33;;
7255;SDS011;3669;49.200;9.242;2024-03-29T08:33:35;3.95;;;3.65;;
7255;SDS011;3669;49.200;9.242;2024-03-29T08:36:05;4.07;;;3.78;;
7255;SDS011;3669;49.200;9.242;2024-03-29T08:38:34;4.13;;;3.83;;
7255;SDS011;3669;49.200;9.242;2024-03-29T08:41:02;4.28;;;3.85;;
7255;SDS011;3669;49.200;9.242;2024-03-29T08:43:29;4.00;;;3.70;;
7255;SDS011;3669;49.200;9.242;2024-03-29T08:45:56;4.10;;;3.80;;
7255;SDS011;3669;49.200;9.242;2024-03-29T08:48:23;5.80;;;5.30;;
7255;SDS011;3669;49.200;9.242;2024-03-29T08:50:51;5.63;;;5.15;;
7255;SDS011;3669;49.200;9.242;2024-03-29T08:53:19;19.10;;;10.77;;
7255;SDS011;3669;49.200;9.242;2024-03-29T08:55:47;49.45;;;27.02;;
7255;SDS011;3669;49.200;9.242;2024-03-29T08:58:15;34.40;;;20.38;;
7255;SDS011;3669;49.200;9.242;2024-03-29T09:00:43;26.55;;;15.90;;
7255;SDS011;3669;49.200;9.242;2024-03-29T09:03:10;17.17;;;12.75;;
7255;SDS011;3669;49.200;9.242;2024-03-29T09:05:37;18.42;;;13.50;;
7255;SDS011;3669;49.200;9.242;2024-03-29T09:08:04;17.92;;;12.63;;
7255;SDS011;3669;49.200;9.242;2024-03-29T09:10:32;9.90;;;7.70;;
7255;SDS011;3669;49.200;9.242;2024-03-29T09:12:59;9.48;;;7.50;;
7255;SDS011;3669;49.200;9.242;2024-03-29T09:15:26;8.52;;;6.80;;
7255;SDS011;3669;49.200;9.242;2024-03-29T09:17:54;6.07;;;4.53;;
7255;SDS011;3669;49.200;9.242;2024-03-29T09:20:21;4.00;;;3.60;;
7255;SDS011;3669;49.200;9.242;2024-03-29T09:22:50;5.40;;;3.58;;
7255;SDS011;3669;49.200;9.242;2024-03-29T09:25:17;4.50;;;3.22;;
7255;SDS011;3669;49.200;9.242;2024-03-29T09:27:48;3.30;;;3.10;;
7255;SDS011;3669;49.200;9.242;2024-03-29T09:30:16;4.25;;;3.17;;
7255;SDS011;3669;49.200;9.242;2024-03-29T09:32:44;2.70;;;2.47;;
7255;SDS011;3669;49.200;9.242;2024-03-29T09:35:13;2.45;;;2.25;;
7255;SDS011;3669;49.200;9.242;2024-03-29T09:37:40;3.03;;;2.85;;
7255;SDS011;3669;49.200;9.242;2024-03-29T09:40:09;2.80;;;2.60;;
7255;SDS011;3669;49.200;9.242;2024-03-29T09:42:38;2.60;;;2.40;;
7255;SDS011;3669;49.200;9.242;2024-03-29T09:45:06;2.80;;;2.60;;
7255;SDS011;3669;49.200;9.242;2024-03-29T09:47:34;2.88;;;2.67;;
7255;SDS011;3669;49.200;9.242;2024-03-29T09:50:02;2.70;;;2.50;;
7255;SDS011;3669;49.200;9.242;2024-03-29T09:52:33;2.65;;;2.45;;
7255;SDS011;3669;49.200;9.242;2024-03-29T09:55:01;2.58;;;2.47;;
7255;SDS011;3669;49.200;9.242;2024-03-29T09:57:28;2.78;;;2.58;;
7255;SDS011;3669;49.200;9.242;2024-03-29T09:59:59;2.92;;;2.72;;
7255;SDS011;3669;49.200;9.242;2024-03-29T10:02:27;2.60;;;2.40;;
7255;SDS011;3669;49.200;9.242;2024-03-29T10:04:56;2.63;;;2.42;;
7255;SDS011;3669;49.200;9.242;2024-03-29T10:07:24;2.63;;;2.53;;
7255;SDS011;3669;49.200;9.242;2024-03-29T10:09:51;2.63;;;2.53;;
7255;SDS011;3669;49.200;9.242;2024-03-29T10:12:20;2.60;;;2.40;;
7255;SDS011;3669;49.200;9.242;2024-03-29T10:14:48;2.53;;;2.33;;
7255;SDS011;3669;49.200;9.242;2024-03-29T10:17:16;4.47;;;3.97;;
7255;SDS011;3669;49.200;9.242;2024-03-29T10:19:43;3.03;;;2.83;;
7255;SDS011;3669;49.200;9.242;2024-03-29T10:22:11;10.07;;;9.43;;
7255;SDS011;3669;49.200;9.242;2024-03-29T10:24:38;18.92;;;18.00;;
7255;SDS011;3669;49.200;9.242;2024-03-29T10:27:05;26.45;;;25.20;;
7255;SDS011;3669;49.200;9.242;2024-03-29T10:29:32;24.90;;;23.70;;
7255;SDS011;3669;49.200;9.242;2024-03-29T10:31:59;29.33;;;27.80;;
7255;SDS011;3669;49.200;9.242;2024-03-29T10:34:28;26.45;;;25.10;;
7255;SDS011;3669;49.200;9.242;2024-03-29T10:37:02;24.20;;;23.00;;
7255;SDS011;3669;49.200;9.242;2024-03-29T10:39:29;27.83;;;26.55;;
7255;SDS011;3669;49.200;9.242;2024-03-29T10:42:01;27.45;;;26.13;;
7255;SDS011;3669;49.200;9.242;2024-03-29T10:44:32;20.50;;;19.50;;
7255;SDS011;3669;49.200;9.242;2024-03-29T10:47:00;18.35;;;17.48;;
7255;SDS011;3669;49.200;9.242;2024-03-29T10:49:27;4.03;;;3.70;;
7255;SDS011;3669;49.200;9.242;2024-03-29T10:51:56;3.63;;;3.33;;
7255;SDS011;3669;49.200;9.242;2024-03-29T10:54:25;3.67;;;3.38;;
7255;SDS011;3669;49.200;9.242;2024-03-29T10:56:56;3.17;;;2.88;;
7255;SDS011;3669;49.200;9.242;2024-03-29T10:59:36;3.50;;;3.20;;
7255;SDS011;3669;49.200;9.242;2024-03-29T11:02:11;3.40;;;3.10;;
7255;SDS011;3669;49.200;9.242;2024-03-29T11:04:40;2.85;;;2.65;;
7255;SDS011;3669;49.200;9.242;2024-03-29T11:07:13;3.20;;;3.00;;
7255;SDS011;3669;49.200;9.242;2024-03-29T11:09:43;3.05;;;2.78;;
7255;SDS011;3669;49.200;9.242;2024-03-29T11:12:11;2.95;;;2.85;;
7255;SDS011;3669;49.200;9.242;2024-03-29T11:14:46;2.78;;;2.58;;
7255;SDS011;3669;49.200;9.242;2024-03-29T11:17:13;2.95;;;2.67;;
7255;SDS011;3669;49.200;9.242;2024-03-29T11:19:41;2.80;;;2.60;;
7255;SDS011;3669;49.200;9.242;2024-03-29T11:22:08;3.00;;;2.75;;
7255;SDS011;3669;49.200;9.242;2024-03-29T11:24:38;3.00;;;2.80;;
7255;SDS011;3669;49.200;9.242;2024-03-29T11:27:10;3.03;;;2.83;;
7255;SDS011;3669;49.200;9.242;2024-03-29T11:29:43;2.72;;;2.53;;
7255;SDS011;3669;49.200;9.242;2024-03-29T11:32:11;2.75;;;2.55;;
7255;SDS011;3669;49.200;9.242;2024-03-29T11:34:45;2.67;;;2.47;;
7255;SDS011;3669;49.200;9.242;2024-03-29T11:37:12;2.83;;;2.63;;
7255;SDS011;3669;49.200;9.242;2024-03-29T11:39:39;2.55;;;2.35;;
7255;SDS011;3669;49.200;9.242;2024-03-29T11:42:07;2.67;;;2.47;;
7255;SDS011;3669;49.200;9.242;2024-03-29T11:44:34;3.17;;;2.90;;
7255;SDS011;3669;49.200;9.242;2024-03-29T11:47:01;2.83;;;2.63;;
7255;SDS011;3669;49.200;9.242;2024-03-29T11:49:32;2.95;;;2.75;;
7255;SDS011;3669;49.200;9.242;2024-03-29T11:52:06;2.80;;;2.60;;
7255;SDS011;3669;49.200;9.242;2024-03-29T11:54:38;2.75;;;2.55;;
7255;SDS011;3669;49.200;9.242;2024-03-29T11:57:05;2.30;;;2.20;;
7255;SDS011;3669;49.200;9.242;2024-03-29T11:59:32;2.55;;;2.45;;
7255;SDS011;3669;49.200;9.242;2024-03-29T12:01:59;2.45;;;2.25;;
7255;SDS011;3669;49.200;9.242;2024-03-29T12:04:26;2.50;;;2.30;;
7255;SDS011;3669;49.200;9.242;2024-03-29T12:06:54;14.93;;;14.18;;
7255;SDS011;3669;49.200;9.242;2024-03-29T12:09:21;17.58;;;16.80;;
7255;SDS011;3669;49.200;9.242;2024-03-29T12:11:48;26.30;;;24.83;;
7255;SDS011;3669;49.200;9.242;2024-03-29T12:14:18;18.08;;;17.23;;
7255;SDS011;3669;49.200;9.242;2024-03-29T12:16:46;6.03;;;5.65;;
7255;SDS011;3669;49.200;9.242;2024-03-29T12:19:23;2.53;;;2.33;;
7255;SDS011;3669;49.200;9.242;2024-03-29T12:21:50;2.70;;;2.50;;
7255;SDS011;3669;49.200;9.242;2024-03-29T12:24:18;2.60;;;2.40;;
7255;SDS011;3669;49.200;9.242;2024-03-29T12:26:45;2.45;;;2.35;;
7255;SDS011;3669;49.200;9.242;2024-03-29T12:29:13;2.50;;;2.40;;
7255;SDS011;3669;49.200;9.242;2024-03-29T12:31:40;2.28;;;2.17;;
7255;SDS011;3669;49.200;9.242;2024-03-29T12:34:07;2.63;;;2.42;;
7255;SDS011;3669;49.200;9.242;2024-03-29T12:36:34;2.70;;;2.50;;
7255;SDS011;3669;49.200;9.242;2024-03-29T12:39:02;2.35;;;2.17;;
7255;SDS011;3669;49.200;9.242;2024-03-29T12:41:31;2.40;;;2.20;;
7255;SDS011;3669;49.200;9.242;2024-03-29T12:44:00;2.25;;;2.15;;
7255;SDS011;3669;49.200;9.242;2024-03-29T12:46:28;2.03;;;1.92;;
7255;SDS011;3669;49.200;9.242;2024-03-29T12:48:59;2.67;;;2.47;;
7255;SDS011;3669;49.200;9.242;2024-03-29T12:51:26;2.50;;;2.33;;
7255;SDS011;3669;49.200;9.242;2024-03-29T12:53:55;2.60;;;2.40;;
7255;SDS011;3669;49.200;9.242;2024-03-29T12:56:28;2.72;;;2.55;;
7255;SDS011;3669;49.200;9.242;2024-03-29T12:58:55;2.40;;;2.30;;
7255;SDS011;3669;49.200;9.242;2024-03-29T13:01:22;2.80;;;2.60;;
7255;SDS011;3669;49.200;9.242;2024-03-29T13:03:50;2.80;;;2.60;;
7255;SDS011;3669;49.200;9.242;2024-03-29T13:06:17;3.10;;;2.58;;
7255;SDS011;3669;49.200;9.242;2024-03-29T13:08:44;2.72;;;2.53;;
7255;SDS011;3669;49.200;9.242;2024-03-29T13:11:11;2.90;;;2.70;;
7255;SDS011;3669;49.200;9.242;2024-03-29T13:13:38;2.58;;;2.38;;
7255;SDS011;3669;49.200;9.242;2024-03-29T13:16:06;2.70;;;2.50;;
7255;SDS011;3669;49.200;9.242;2024-03-29T13:18:33;2.33;;;2.22;;
7255;SDS011;3669;49.200;9.242;2024-03-29T13:21:01;2.50;;;2.30;;
7255;SDS011;3669;49.200;9.242;2024-03-29T13:23:28;2.38;;;2.10;;
7255;SDS011;3669;49.200;9.242;2024-03-29T13:25:58;2.72;;;2.53;;
7255;SDS011;3669;49.200;9.242;2024-03-29T13:28:25;2.83;;;2.65;;
7255;SDS011;3669;49.200;9.242;2024-03-29T13:30:53;2.80;;;2.42;;
7255;SDS011;3669;49.200;9.242;2024-03-29T13:33:21;2.83;;;2.63;;
7255;SDS011;3669;49.200;9.242;2024-03-29T13:35:52;2.85;;;2.60;;
7255;SDS011;3669;49.200;9.242;2024-03-29T13:38:22;2.78;;;2.58;;
7255;SDS011;3669;49.200;9.242;2024-03-29T13:40:52;2.85;;;2.63;;
7255;SDS011;3669;49.200;9.242;2024-03-29T13:43:19;2.97;;;2.72;;
7255;SDS011;3669;49.200;9.242;2024-03-29T13:45:48;3.00;;;2.80;;
7255;SDS011;3669;49.200;9.242;2024-03-29T13:48:16;3.20;;;3.00;;
7255;SDS011;3669;49.200;9.242;2024-03-29T13:50:44;2.97;;;2.67;;
7255;SDS011;3669;49.200;9.242;2024-03-29T13:53:11;3.20;;;2.90;;
7255;SDS011;3669;49.200;9.242;2024-03-29T13:55:39;3.30;;;3.00;;
7255;SDS011;3669;49.200;9.242;2024-03-29T13:58:06;3.10;;;2.80;;
7255;SDS011;3669;49.200;9.242;2024-03-29T14:00:33;3.08;;;2.88;;
7255;SDS011;3669;49.200;9.242;2024-03-29T14:03:00;3.00;;;2.80;;
7255;SDS011;3669;49.200;9.242;2024-03-29T14:05:28;2.80;;;2.60;;
7255;SDS011;3669;49.200;9.242;2024-03-29T14:07:55;3.40;;;3.20;;
7255;SDS011;3669;49.200;9.242;2024-03-29T14:10:23;11.73;;;11.10;;
7255;SDS011;3669;49.200;9.242;2024-03-29T14:12:50;15.07;;;14.35;;
7255;SDS011;3669;49.200;9.242;2024-03-29T14:15:19;29.50;;;27.92;;
7255;SDS011;3669;49.200;9.242;2024-03-29T14:17:46;22.95;;;21.77;;
7255;SDS011;3669;49.200;9.242;2024-03-29T14:20:13;22.13;;;20.92;;
7255;SDS011;3669;49.200;9.242;2024-03-29T14:22:40;17.73;;;16.75;;
7255;SDS011;3669;49.200;9.242;2024-03-29T14:25:07;5.78;;;5.40;;
7255;SDS011;3669;49.200;9.242;2024-03-29T14:27:36;2.88;;;2.58;;
7255;SDS011;3669;49.200;9.242;2024-03-29T14:30:11;2.95;;;2.75;;
7255;SDS011;3669;49.200;9.242;2024-03-29T14:32:40;2.35;;;2.25;;
7255;SDS011;3669;49.200;9.242;2024-03-29T14:35:08;3.00;;;2.80;;
7255;SDS011;3669;49.200;9.242;2024-03-29T14:37:37;2.70;;;2.55;;
7255;SDS011;3669;49.200;9.242;2024-03-29T14:40:04;2.88;;;2.67;;
7255;SDS011;3669;49.200;9.242;2024-03-29T14:42:31;3.17;;;2.90;;
7255;SDS011;3669;49.200;9.242;2024-03-29T14:44:58;3.30;;;3.10;;
7255;SDS011;3669;49.200;9.242;2024-03-29T14:47:25;3.35;;;2.92;;
7255;SDS011;3669;49.200;9.242;2024-03-29T14:49:53;2.60;;;2.50;;
7255;SDS011;3669;49.200;9.242;2024-03-29T14:52:20;2.90;;;2.70;;
7255;SDS011;3669;49.200;9.242;2024-03-29T14:54:47;3.78;;;3.08;;
7255;SDS011;3669;49.200;9.242;2024-03-29T14:57:14;2.85;;;2.65;;
7255;SDS011;3669;49.200;9.242;2024-03-29T14:59:41;2.58;;;2.35;;
7255;SDS011;3669;49.200;9.242;2024-03-29T15:02:08;3.20;;;2.90;;
7255;SDS011;3669;49.200;9.242;2024-03-29T15:04:36;2.60;;;2.40;;
7255;SDS011;3669;49.200;9.242;2024-03-29T15:07:03;2.50;;;2.22;;
7255;SDS011;3669;49.200;9.242;2024-03-29T15:09:31;2.85;;;2.65;;
7255;SDS011;3669;49.200;9.242;2024-03-29T15:11:58;2.47;;;2.38;;
7255;SDS011;3669;49.200;9.242;2024-03-29T15:14:25;2.70;;;2.50;;
7255;SDS011;3669;49.200;9.242;2024-03-29T15:16:52;3.15;;;2.55;;